Bairoil, Wyoming
Current Conditions -  °F | °C
As of 2:53 AM on Friday 24 Oct 2014 (Local Time) from KRWL Reporting Station
Clear Clear  
Wind Chill: 53°   Ceiling: Unl
Heat Index: 53°   Visibility: 10mi
Dew Point: 29°   Wind: 18mph
Humidity: 40%   Direction: 240°WSW
Pressure: 30.2"   Gusts: NA
Location:  42.24°N, 107.56°W
Report Text: KRWL 240853Z AUTO 24016KT 10SM CLR 12/M02 A3020 RMK AO2 SLP155 T01171017 53004
Loading
Personal Weather Stations






























Interactive Weather Map
Tropical Storm Tracking
New forecast layout! Learn more

10-Day Weather Forecast

Advertisements
Track Severe Weather on mobile